Time;durP1;ratioP1;P1;durP2;ratioP2;P2;SDS_P1;SDS_P2;PMS_P1;PMS_P2;Temp;Humidity;BMP_temperature;BMP_pressure;BME280_temperature;BME280_humidity;BME280_pressure;Samples;Min_cycle;Max_cycle;Signal;HPM_P1;HPM_P2
2022/11/07 00:01:16;;;;;;;;;;;17.60;99.90;;;;;;5029680;28;19929;-61
2022/11/07 00:03:43;;;;;;;;;;;17.60;99.90;;;;;;5056046;28;19932;-61
2022/11/07 00:06:10;;;;;;;;;;;17.60;99.90;;;;;;5052969;28;20315;-64
2022/11/07 00:08:37;;;;;;;;;;;17.60;99.90;;;;;;5051251;28;19931;-60
2022/11/07 00:11:05;;;;;;;;;;;17.60;99.90;;;;;;5056354;28;19927;-56
2022/11/07 00:13:32;;;;;;;;;;;17.60;99.90;;;;;;5055881;28;20726;-61
2022/11/07 00:16:00;;;;;;;;;;;17.60;99.90;;;;;;5050605;28;19924;-57
2022/11/07 00:18:27;;;;;;;;;;;17.50;99.90;;;;;;5060893;28;21261;-60
2022/11/07 00:20:54;;;;;;;;;;;17.60;99.90;;;;;;5058582;28;19931;-59
2022/11/07 00:23:21;;;;;;;;;;;17.50;99.90;;;;;;5026747;28;19932;-60
2022/11/07 00:25:48;;;;;;;;;;;17.50;99.90;;;;;;5059937;28;19924;-59
2022/11/07 00:28:16;;;;;;;;;;;17.50;99.90;;;;;;5034705;28;19925;-59
2022/11/07 00:30:43;;;;;;;;;;;17.50;99.90;;;;;;5057760;28;20642;-58
2022/11/07 00:33:10;;;;;;;;;;;17.50;99.90;;;;;;5055016;28;19928;-62
2022/11/07 00:35:41;;;;;;;;;;;17.50;99.90;;;;;;5032725;28;19932;-59
2022/11/07 00:38:08;;;;;;;;;;;17.50;99.90;;;;;;5048894;28;19925;-60
2022/11/07 00:40:35;;;;;;;;;;;17.50;99.90;;;;;;5060320;28;19933;-59
2022/11/07 00:43:02;;;;;;;;;;;17.40;99.90;;;;;;5058283;28;19924;-61
2022/11/07 00:45:29;;;;;;;;;;;17.40;99.90;;;;;;5052575;28;19924;-62
2022/11/07 00:47:56;;;;;;;;;;;17.40;99.90;;;;;;5059288;28;19925;-60
2022/11/07 00:50:23;;;;;;;;;;;17.40;99.90;;;;;;5058641;28;19931;-62
2022/11/07 00:52:50;;;;;;;;;;;17.40;99.90;;;;;;5058115;28;20172;-58
2022/11/07 00:55:17;;;;;;;;;;;17.40;99.90;;;;;;5056793;28;19931;-61
2022/11/07 00:57:44;;;;;;;;;;;17.30;99.90;;;;;;5057920;28;19927;-59
2022/11/07 01:00:11;;;;;;;;;;;17.30;99.90;;;;;;5051009;28;19948;-58
2022/11/07 01:02:38;;;;;;;;;;;17.40;99.90;;;;;;5035190;28;19924;-57
2022/11/07 01:05:10;;;;;;;;;;;17.40;99.90;;;;;;5065121;28;20367;-60
2022/11/07 01:07:40;;;;;;;;;;;17.30;99.90;;;;;;5052780;28;19924;-61
2022/11/07 01:10:07;;;;;;;;;;;17.40;99.90;;;;;;5048819;28;19932;-62
2022/11/07 01:12:34;;;;;;;;;;;17.40;99.90;;;;;;5049121;28;19943;-54
2022/11/07 01:15:02;;;;;;;;;;;17.30;99.90;;;;;;5046066;28;19932;-58
2022/11/07 01:17:29;;;;;;;;;;;17.30;99.90;;;;;;5059903;28;19920;-55
2022/11/07 01:19:57;;;;;;;;;;;17.30;99.90;;;;;;5044143;28;20279;-55
2022/11/07 01:22:23;;;;;;;;;;;17.30;99.90;;;;;;5057141;28;20243;-56
2022/11/07 01:24:51;;;;;;;;;;;17.30;99.90;;;;;;5052761;28;19924;-57
2022/11/07 01:27:18;;;;;;;;;;;17.30;99.90;;;;;;5056211;28;19944;-60
2022/11/07 01:29:45;;;;;;;;;;;17.30;99.90;;;;;;5056188;28;20890;-55
2022/11/07 01:32:12;;;;;;;;;;;17.30;99.90;;;;;;5057933;28;20315;-58
2022/11/07 01:34:39;;;;;;;;;;;17.30;99.90;;;;;;5054960;28;20464;-57
2022/11/07 01:37:06;;;;;;;;;;;17.20;99.90;;;;;;5055426;28;19931;-56
2022/11/07 01:39:33;;;;;;;;;;;17.20;99.90;;;;;;5052586;28;19924;-58
2022/11/07 01:42:00;;;;;;;;;;;17.20;99.90;;;;;;5057390;28;20399;-59
2022/11/07 01:44:27;;;;;;;;;;;17.30;99.90;;;;;;5053109;28;20403;-60
2022/11/07 01:46:56;;;;;;;;;;;17.30;99.90;;;;;;5041677;28;19924;-57
2022/11/07 01:49:34;;;;;;;;;;;17.30;99.90;;;;;;5034423;28;20396;-54
2022/11/07 01:52:07;;;;;;;;;;;17.20;99.90;;;;;;5054861;28;19925;-57
2022/11/07 01:54:43;;;;;;;;;;;17.20;99.90;;;;;;5050087;28;20276;-55
2022/11/07 01:57:13;;;;;;;;;;;17.20;99.90;;;;;;5067645;22;19948;-57
2022/11/07 01:59:40;;;;;;;;;;;17.20;99.90;;;;;;5051627;28;19931;-57
2022/11/07 02:02:08;;;;;;;;;;;17.20;99.90;;;;;;5053432;28;19939;-60
2022/11/07 02:04:35;;;;;;;;;;;17.20;99.90;;;;;;5050138;28;19935;-60
2022/11/07 02:07:12;;;;;;;;;;;17.20;99.90;;;;;;5037840;28;19925;-64
2022/11/07 02:09:40;;;;;;;;;;;17.20;99.90;;;;;;5003877;28;19920;-59
2022/11/07 02:12:07;;;;;;;;;;;17.20;99.90;;;;;;5033155;28;19928;-58
2022/11/07 02:14:34;;;;;;;;;;;17.20;99.90;;;;;;5025365;28;19925;-61
2022/11/07 02:17:01;;;;;;;;;;;17.20;99.90;;;;;;5027875;28;19928;-62
2022/11/07 02:19:33;;;;;;;;;;;17.20;99.90;;;;;;5041196;28;20277;-58
2022/11/07 02:22:10;;;;;;;;;;;17.20;99.90;;;;;;5033931;28;21380;-59
2022/11/07 02:24:37;;;;;;;;;;;17.10;99.90;;;;;;5026395;28;19948;-59
2022/11/07 02:27:10;;;;;;;;;;;17.20;99.90;;;;;;5031948;28;19925;-60
2022/11/07 02:29:39;;;;;;;;;;;17.20;99.90;;;;;;5033793;28;19925;-58
2022/11/07 02:32:07;;;;;;;;;;;17.20;99.90;;;;;;5030110;28;19921;-57
2022/11/07 02:34:34;;;;;;;;;;;17.20;99.90;;;;;;5029078;28;19925;-58
2022/11/07 02:37:03;;;;;;;;;;;17.20;99.90;;;;;;5045841;28;20389;-58
2022/11/07 02:39:30;;;;;;;;;;;17.20;99.90;;;;;;5027926;28;19924;-59
2022/11/07 02:41:58;;;;;;;;;;;17.10;99.90;;;;;;5024248;28;19932;-60
2022/11/07 02:44:26;;;;;;;;;;;17.20;99.90;;;;;;5007374;28;19932;-58
2022/11/07 02:46:53;;;;;;;;;;;17.20;99.90;;;;;;5033577;28;19932;-57
2022/11/07 02:49:20;;;;;;;;;;;17.10;99.90;;;;;;5027489;28;19924;-62
2022/11/07 02:51:47;;;;;;;;;;;17.10;99.90;;;;;;5027980;28;19931;-61
2022/11/07 02:54:14;;;;;;;;;;;17.10;99.90;;;;;;5037483;28;20308;-57
2022/11/07 02:56:41;;;;;;;;;;;17.10;99.90;;;;;;5035960;28;19925;-57
2022/11/07 02:59:08;;;;;;;;;;;17.10;99.90;;;;;;5028292;28;19921;-57
2022/11/07 03:01:35;;;;;;;;;;;17.10;99.90;;;;;;5039360;28;20427;-55
2022/11/07 03:04:03;;;;;;;;;;;17.10;99.90;;;;;;5035774;28;20320;-59
2022/11/07 03:06:30;;;;;;;;;;;17.10;99.90;;;;;;5031149;28;19931;-58
2022/11/07 03:08:57;;;;;;;;;;;17.10;99.90;;;;;;5032088;28;19925;-59
2022/11/07 03:11:24;;;;;;;;;;;17.10;99.90;;;;;;5041834;28;19943;-58
2022/11/07 03:13:53;;;;;;;;;;;17.10;99.90;;;;;;5028731;28;20293;-59
2022/11/07 03:16:20;;;;;;;;;;;17.10;99.90;;;;;;5035340;28;19925;-58
2022/11/07 03:18:47;;;;;;;;;;;17.10;99.90;;;;;;5037901;28;19931;-59
2022/11/07 03:21:14;;;;;;;;;;;17.10;99.90;;;;;;5041716;28;19932;-60
2022/11/07 03:23:41;;;;;;;;;;;17.10;99.90;;;;;;5039982;28;19924;-60
2022/11/07 03:26:08;;;;;;;;;;;17.10;99.90;;;;;;5043239;28;19921;-54
2022/11/07 03:28:36;;;;;;;;;;;17.00;99.90;;;;;;5036857;28;19925;-60
2022/11/07 03:31:03;;;;;;;;;;;17.10;99.90;;;;;;5038539;28;19924;-62
2022/11/07 03:33:30;;;;;;;;;;;17.10;99.90;;;;;;5018489;28;19931;-58
2022/11/07 03:35:57;;;;;;;;;;;17.00;99.90;;;;;;5028620;28;19932;-61
2022/11/07 03:38:24;;;;;;;;;;;17.10;99.90;;;;;;5032866;28;19936;-60
2022/11/07 03:40:51;;;;;;;;;;;17.10;99.90;;;;;;5040902;28;19925;-59
2022/11/07 03:43:18;;;;;;;;;;;17.10;99.90;;;;;;5043814;28;20204;-58
2022/11/07 03:45:46;;;;;;;;;;;17.00;99.90;;;;;;5035246;28;19921;-56
2022/11/07 03:48:13;;;;;;;;;;;17.10;99.90;;;;;;5040292;28;19932;-62
2022/11/07 03:50:40;;;;;;;;;;;17.00;99.90;;;;;;5037752;28;20423;-60
2022/11/07 03:53:07;;;;;;;;;;;17.00;99.90;;;;;;5035476;28;19925;-59
2022/11/07 03:55:34;;;;;;;;;;;17.00;99.90;;;;;;5036679;28;19920;-59
2022/11/07 03:58:01;;;;;;;;;;;17.00;99.90;;;;;;5039247;28;19925;-62
2022/11/07 04:00:28;;;;;;;;;;;17.00;99.90;;;;;;5045390;28;19929;-60
2022/11/07 04:02:55;;;;;;;;;;;17.00;99.90;;;;;;5040508;28;19924;-61
2022/11/07 04:05:23;;;;;;;;;;;17.00;99.90;;;;;;5020262;28;20376;-60
2022/11/07 04:07:50;;;;;;;;;;;17.10;99.90;;;;;;5027389;28;19925;-59
2022/11/07 04:10:17;;;;;;;;;;;17.10;99.90;;;;;;5030030;28;19941;-61
2022/11/07 04:18:15;;;;;;;;;;;16.90;99.90;;;;;;5028581;28;19932;-61
2022/11/07 04:20:42;;;;;;;;;;;16.90;99.90;;;;;;5037862;28;19932;-60
2022/11/07 04:23:10;;;;;;;;;;;16.90;99.90;;;;;;5038049;28;19928;-61
2022/11/07 04:28:23;;;;;;;;;;;16.90;99.90;;;;;;5034158;28;20403;-59
2022/11/07 04:30:50;;;;;;;;;;;16.90;99.90;;;;;;5037341;28;19925;-63
2022/11/07 04:33:17;;;;;;;;;;;16.80;99.90;;;;;;5030747;28;19941;-65
2022/11/07 04:35:44;;;;;;;;;;;16.80;99.90;;;;;;5030071;28;19929;-63
2022/11/07 04:38:11;;;;;;;;;;;16.90;99.90;;;;;;5029246;28;19921;-57
2022/11/07 04:40:39;;;;;;;;;;;16.80;99.90;;;;;;5033175;28;19920;-59
2022/11/07 04:43:09;;;;;;;;;;;16.80;99.90;;;;;;5040989;28;19925;-59
2022/11/07 04:45:37;;;;;;;;;;;16.80;99.90;;;;;;5023210;28;19929;-59
2022/11/07 04:48:04;;;;;;;;;;;16.80;99.90;;;;;;5018400;28;19925;-62
2022/11/07 04:50:31;;;;;;;;;;;16.80;99.90;;;;;;5043721;28;20300;-60
2022/11/07 04:52:59;;;;;;;;;;;16.90;99.90;;;;;;5033474;28;19929;-59
2022/11/07 04:55:29;;;;;;;;;;;17.10;99.90;;;;;;5016105;28;19932;-61
2022/11/07 04:57:56;;;;;;;;;;;17.30;99.90;;;;;;5032748;28;19924;-59
2022/11/07 05:00:23;;;;;;;;;;;17.50;99.90;;;;;;5015301;28;19925;-57
2022/11/07 05:02:50;;;;;;;;;;;17.80;99.90;;;;;;5026865;28;19924;-57
2022/11/07 05:05:18;;;;;;;;;;;18.00;99.90;;;;;;5028461;28;20048;-56
2022/11/07 05:07:45;;;;;;;;;;;18.30;99.90;;;;;;5030477;28;19924;-60
2022/11/07 05:10:17;;;;;;;;;;;18.50;99.90;;;;;;5027622;28;19925;-64
2022/11/07 05:12:44;;;;;;;;;;;18.70;99.90;;;;;;5028422;28;20393;-61
2022/11/07 05:15:12;;;;;;;;;;;18.90;99.90;;;;;;5031196;28;20412;-60
2022/11/07 05:17:39;;;;;;;;;;;19.00;99.90;;;;;;5010613;28;20335;-61
2022/11/07 05:20:06;;;;;;;;;;;19.10;99.90;;;;;;5027816;28;19925;-59
2022/11/07 05:25:22;;;;;;;;;;;19.20;99.90;;;;;;5031578;28;19932;-61
2022/11/07 05:27:53;;;;;;;;;;;19.10;99.90;;;;;;5014602;28;19944;-62
2022/11/07 05:30:20;;;;;;;;;;;19.20;99.90;;;;;;5026642;28;19929;-58
2022/11/07 05:32:47;;;;;;;;;;;19.10;99.90;;;;;;5026688;28;19925;-63
2022/11/07 05:35:14;;;;;;;;;;;19.10;99.90;;;;;;5035153;28;19921;-59
2022/11/07 05:37:41;;;;;;;;;;;19.00;99.90;;;;;;5026949;28;19925;-56
2022/11/07 05:40:09;;;;;;;;;;;19.10;99.90;;;;;;5026704;28;19932;-58
2022/11/07 05:42:36;;;;;;;;;;;19.10;99.90;;;;;;5034432;28;19924;-60
2022/11/07 05:45:03;;;;;;;;;;;19.10;99.90;;;;;;5030552;28;19925;-60
2022/11/07 05:47:30;;;;;;;;;;;19.10;99.90;;;;;;5026777;28;19929;-60
2022/11/07 05:49:57;;;;;;;;;;;19.10;99.90;;;;;;5044372;28;19929;-63
2022/11/07 05:52:24;;;;;;;;;;;19.10;99.90;;;;;;5044540;28;19980;-62
2022/11/07 05:54:51;;;;;;;;;;;19.10;99.90;;;;;;5044804;28;20341;-62
2022/11/07 05:57:19;;;;;;;;;;;19.00;99.90;;;;;;5047629;28;19924;-62
2022/11/07 05:59:46;;;;;;;;;;;19.00;99.90;;;;;;5040341;28;19925;-61
2022/11/07 06:02:13;;;;;;;;;;;19.00;99.90;;;;;;5033649;28;19935;-60
2022/11/07 06:04:40;;;;;;;;;;;19.00;99.90;;;;;;5030439;28;20392;-59
2022/11/07 06:07:07;;;;;;;;;;;19.00;99.90;;;;;;5036574;28;20286;-60
2022/11/07 06:09:34;;;;;;;;;;;19.00;99.90;;;;;;5042716;28;19928;-60
2022/11/07 06:12:02;;;;;;;;;;;19.00;99.90;;;;;;5027463;28;19925;-59
2022/11/07 06:14:29;;;;;;;;;;;19.00;99.90;;;;;;5030107;28;19920;-57
2022/11/07 06:16:56;;;;;;;;;;;18.90;99.90;;;;;;5031978;28;19925;-62
2022/11/07 06:19:24;;;;;;;;;;;19.00;99.90;;;;;;5038515;28;20122;-59
2022/11/07 06:21:51;;;;;;;;;;;19.00;99.90;;;;;;5040036;28;19935;-62
2022/11/07 06:24:19;;;;;;;;;;;19.00;99.90;;;;;;5045906;28;19948;-62
2022/11/07 06:26:46;;;;;;;;;;;19.00;99.90;;;;;;5053985;28;19919;-61
2022/11/07 06:29:13;;;;;;;;;;;19.00;99.90;;;;;;5033626;28;19928;-62
2022/11/07 06:31:40;;;;;;;;;;;19.00;99.90;;;;;;5048360;28;19921;-61
2022/11/07 06:34:07;;;;;;;;;;;19.00;99.90;;;;;;5046512;28;19924;-62
2022/11/07 06:36:35;;;;;;;;;;;19.00;99.90;;;;;;5049055;28;19921;-58
2022/11/07 06:39:02;;;;;;;;;;;19.00;99.90;;;;;;5043588;28;19932;-63
2022/11/07 06:41:29;;;;;;;;;;;19.00;99.90;;;;;;5032522;28;19921;-57
2022/11/07 06:43:56;;;;;;;;;;;18.90;99.90;;;;;;5030147;28;20409;-58
2022/11/07 06:46:24;;;;;;;;;;;18.90;99.90;;;;;;5033776;28;20408;-56
2022/11/07 06:48:51;;;;;;;;;;;18.90;99.90;;;;;;5030993;28;19929;-61
2022/11/07 06:51:18;;;;;;;;;;;18.90;99.90;;;;;;5039805;28;19932;-61
2022/11/07 06:53:45;;;;;;;;;;;18.90;99.90;;;;;;5032106;28;19925;-62
2022/11/07 06:56:13;;;;;;;;;;;18.90;99.90;;;;;;5040866;28;19954;-59
2022/11/07 06:58:41;;;;;;;;;;;18.90;99.90;;;;;;5032620;28;19921;-61
2022/11/07 07:01:12;;;;;;;;;;;18.80;99.90;;;;;;5034455;28;19921;-58
2022/11/07 07:03:40;;;;;;;;;;;18.80;99.90;;;;;;5041919;28;19925;-58
2022/11/07 07:06:15;;;;;;;;;;;18.80;99.90;;;;;;5045521;28;19927;-63
2022/11/07 07:08:43;;;;;;;;;;;18.90;99.90;;;;;;5034116;28;19944;-58
2022/11/07 07:11:11;;;;;;;;;;;19.00;99.90;;;;;;5032996;28;19928;-60
2022/11/07 07:13:39;;;;;;;;;;;19.10;99.90;;;;;;5032255;28;20392;-59
2022/11/07 07:16:06;;;;;;;;;;;19.20;99.90;;;;;;5032234;28;19932;-62
2022/11/07 07:18:34;;;;;;;;;;;19.20;99.90;;;;;;5022708;28;19924;-59
2022/11/07 07:21:10;;;;;;;;;;;19.30;99.90;;;;;;5034513;28;20210;-58
2022/11/07 07:23:38;;;;;;;;;;;19.30;99.90;;;;;;5031391;28;19940;-57
2022/11/07 07:26:07;;;;;;;;;;;19.30;99.90;;;;;;5021197;28;19921;-59
2022/11/07 07:28:36;;;;;;;;;;;19.30;99.90;;;;;;5032539;28;20320;-61
2022/11/07 07:31:17;;;;;;;;;;;19.30;99.90;;;;;;5017263;28;19924;-59
2022/11/07 07:33:45;;;;;;;;;;;19.20;99.90;;;;;;5028985;28;19921;-59
2022/11/07 07:36:13;;;;;;;;;;;19.20;99.90;;;;;;5035022;28;19925;-60
2022/11/07 07:38:46;;;;;;;;;;;19.20;99.90;;;;;;5032800;28;20407;-58
2022/11/07 07:41:13;;;;;;;;;;;19.20;99.90;;;;;;5029243;28;19936;-61
2022/11/07 07:43:41;;;;;;;;;;;19.20;99.90;;;;;;5037466;28;19920;-59
2022/11/07 07:46:12;;;;;;;;;;;19.20;99.90;;;;;;5032792;28;19925;-55
2022/11/07 07:48:39;;;;;;;;;;;19.30;99.90;;;;;;5029388;28;19925;-62
2022/11/07 07:51:06;;;;;;;;;;;19.30;99.90;;;;;;5013976;28;19924;-62
2022/11/07 07:53:33;;;;;;;;;;;19.30;99.90;;;;;;5041671;28;19924;-61
2022/11/07 07:56:04;;;;;;;;;;;19.30;99.90;;;;;;5045034;28;19925;-63
2022/11/07 07:58:32;;;;;;;;;;;19.30;99.90;;;;;;5048869;28;19928;-60
2022/11/07 08:00:59;;;;;;;;;;;19.30;99.90;;;;;;5050560;28;19924;-63
2022/11/07 08:03:26;;;;;;;;;;;19.30;99.90;;;;;;5039981;28;20400;-60
2022/11/07 08:06:01;;;;;;;;;;;19.30;99.90;;;;;;5029085;28;19944;-63
2022/11/07 08:08:28;;;;;;;;;;;19.30;99.90;;;;;;5034475;28;19927;-62
2022/11/07 08:11:05;;;;;;;;;;;19.30;99.90;;;;;;5037501;28;19924;-61
2022/11/07 08:13:33;;;;;;;;;;;19.30;99.90;;;;;;5026541;28;19924;-61
2022/11/07 08:16:01;;;;;;;;;;;19.30;99.90;;;;;;5030657;28;19925;-65
2022/11/07 08:18:28;;;;;;;;;;;19.20;99.90;;;;;;5018492;28;19929;-61
2022/11/07 08:20:55;;;;;;;;;;;19.20;99.90;;;;;;5017959;28;19921;-63
2022/11/07 08:23:23;;;;;;;;;;;19.20;99.90;;;;;;5031069;28;19940;-62
2022/11/07 08:25:55;;;;;;;;;;;19.20;99.90;;;;;;5024142;28;19921;-60
2022/11/07 08:28:23;;;;;;;;;;;19.10;99.90;;;;;;5039113;28;19952;-61
2022/11/07 08:31:01;;;;;;;;;;;19.20;99.90;;;;;;5039218;28;19936;-60
2022/11/07 08:33:29;;;;;;;;;;;19.20;99.90;;;;;;5037236;28;19921;-57
2022/11/07 08:35:59;;;;;;;;;;;19.40;99.90;;;;;;5037630;28;19921;-59
2022/11/07 08:38:26;;;;;;;;;;;19.40;99.90;;;;;;5028703;28;20360;-63
2022/11/07 08:40:54;;;;;;;;;;;19.50;99.90;;;;;;5027691;28;19921;-57
2022/11/07 08:43:21;;;;;;;;;;;19.50;99.90;;;;;;5013478;28;19925;-58
2022/11/07 08:45:48;;;;;;;;;;;19.50;99.90;;;;;;5023521;28;19929;-58
2022/11/07 08:48:16;;;;;;;;;;;19.40;99.90;;;;;;5037859;28;19925;-55
2022/11/07 08:50:43;;;;;;;;;;;19.40;99.90;;;;;;5020287;28;20313;-58
2022/11/07 08:53:11;;;;;;;;;;;19.40;99.90;;;;;;5028801;28;19928;-57
2022/11/07 08:55:38;;;;;;;;;;;19.40;99.90;;;;;;5036178;28;19996;-60
2022/11/07 08:58:06;;;;;;;;;;;19.30;99.90;;;;;;5028680;28;19925;-58
2022/11/07 09:00:34;;;;;;;;;;;19.40;99.90;;;;;;5017986;28;19924;-55
2022/11/07 09:03:04;;;;;;;;;;;19.30;99.90;;;;;;5018952;28;19929;-58
2022/11/07 09:05:51;;;;;;;;;;;19.30;99.90;;;;;;5030301;28;19940;-58
2022/11/07 09:08:18;;;;;;;;;;;19.30;99.90;;;;;;5037657;28;19924;-60
2022/11/07 09:10:45;;;;;;;;;;;19.30;99.90;;;;;;5039336;28;19925;-60
2022/11/07 09:13:13;;;;;;;;;;;19.20;99.90;;;;;;5045266;28;19943;-61
2022/11/07 09:15:41;;;;;;;;;;;19.20;99.90;;;;;;5047609;28;20462;-59
2022/11/07 09:18:16;;;;;;;;;;;19.20;99.90;;;;;;5024793;28;19925;-59
2022/11/07 09:20:43;;;;;;;;;;;19.20;99.90;;;;;;5030209;28;19928;-61
2022/11/07 09:23:10;;;;;;;;;;;19.20;99.90;;;;;;5047635;28;19925;-57
2022/11/07 09:25:37;;;;;;;;;;;19.20;99.90;;;;;;5033721;28;20337;-60
2022/11/07 09:28:05;;;;;;;;;;;19.20;99.90;;;;;;5035040;28;19928;-56
2022/11/07 09:30:32;;;;;;;;;;;19.20;99.90;;;;;;5033292;28;19929;-56
2022/11/07 09:32:59;;;;;;;;;;;19.20;99.90;;;;;;5035304;28;19939;-56
2022/11/07 09:35:27;;;;;;;;;;;19.30;99.90;;;;;;5043183;28;19924;-60
2022/11/07 09:37:54;;;;;;;;;;;19.20;99.90;;;;;;5045398;28;19929;-56
2022/11/07 09:40:37;;;;;;;;;;;19.30;99.90;;;;;;5046219;28;19935;-56
2022/11/07 09:43:18;;;;;;;;;;;19.30;99.90;;;;;;5047650;28;19920;-55
2022/11/07 09:46:09;;;;;;;;;;;19.30;99.90;;;;;;5039881;28;19925;-58
2022/11/07 09:48:40;;;;;;;;;;;19.40;99.90;;;;;;5015530;28;19925;-58
2022/11/07 09:51:12;;;;;;;;;;;19.40;99.90;;;;;;5029056;28;19928;-58
2022/11/07 09:53:45;;;;;;;;;;;19.40;99.90;;;;;;5035227;28;20300;-57
2022/11/07 09:56:13;;;;;;;;;;;19.40;99.90;;;;;;5034894;28;19929;-57
2022/11/07 09:58:46;;;;;;;;;;;19.50;99.90;;;;;;5042980;28;19928;-58
2022/11/07 10:01:16;;;;;;;;;;;19.50;99.90;;;;;;5029156;28;19921;-59
2022/11/07 10:03:43;;;;;;;;;;;19.50;99.90;;;;;;5046220;28;20304;-60
2022/11/07 10:06:32;;;;;;;;;;;19.50;99.90;;;;;;5034404;28;19932;-58
2022/11/07 10:08:59;;;;;;;;;;;19.60;99.90;;;;;;5030455;28;19921;-61
2022/11/07 10:11:47;;;;;;;;;;;19.60;99.90;;;;;;5030903;28;19940;-59
2022/11/07 10:14:14;;;;;;;;;;;19.60;99.90;;;;;;5027989;28;19920;-60
2022/11/07 10:16:49;;;;;;;;;;;19.50;99.90;;;;;;5038416;28;20388;-60
2022/11/07 10:19:25;;;;;;;;;;;19.50;99.90;;;;;;5041476;28;20384;-61
2022/11/07 10:22:14;;;;;;;;;;;19.50;99.90;;;;;;5033068;28;19925;-60
2022/11/07 10:24:47;;;;;;;;;;;19.50;99.90;;;;;;5031571;28;19936;-59
2022/11/07 10:27:14;;;;;;;;;;;19.50;99.90;;;;;;5034461;28;19921;-62
2022/11/07 10:29:51;;;;;;;;;;;19.50;99.90;;;;;;5042354;28;20439;-60
2022/11/07 10:32:18;;;;;;;;;;;19.40;99.90;;;;;;5045125;28;19929;-61
2022/11/07 10:34:48;;;;;;;;;;;19.40;99.90;;;;;;5039781;28;19929;-60
2022/11/07 10:37:20;;;;;;;;;;;19.40;99.90;;;;;;5038917;28;19921;-61
2022/11/07 10:39:48;;;;;;;;;;;19.30;99.90;;;;;;5037341;28;19932;-62
2022/11/07 10:42:17;;;;;;;;;;;19.30;99.90;;;;;;5044652;28;19924;-59
2022/11/07 10:44:44;;;;;;;;;;;19.30;99.90;;;;;;5033972;28;19921;-61
2022/11/07 10:47:22;;;;;;;;;;;19.30;99.90;;;;;;5022385;28;19932;-59
2022/11/07 10:50:00;;;;;;;;;;;19.30;99.90;;;;;;5026105;28;19925;-56
2022/11/07 10:52:27;;;;;;;;;;;19.30;99.90;;;;;;5031550;28;19948;-60
2022/11/07 10:55:08;;;;;;;;;;;19.20;99.90;;;;;;5030055;28;20340;-64
2022/11/07 10:57:35;;;;;;;;;;;19.20;99.90;;;;;;5028321;28;19932;-58
2022/11/07 11:00:04;;;;;;;;;;;19.20;99.90;;;;;;5013622;28;20391;-59
2022/11/07 11:02:44;;;;;;;;;;;19.20;99.90;;;;;;5015341;28;19928;-63
2022/11/07 11:05:23;;;;;;;;;;;19.20;99.90;;;;;;5012865;28;19932;-58
2022/11/07 11:07:50;;;;;;;;;;;19.40;99.90;;;;;;5037987;28;19932;-58
2022/11/07 11:10:18;;;;;;;;;;;19.50;99.90;;;;;;5030881;28;19925;-54
2022/11/07 11:12:46;;;;;;;;;;;19.70;99.90;;;;;;5037016;28;19931;-61
2022/11/07 11:15:18;;;;;;;;;;;19.80;99.90;;;;;;5028559;28;19925;-60
2022/11/07 11:17:46;;;;;;;;;;;20.00;99.90;;;;;;5035308;28;19945;-59
2022/11/07 11:20:27;;;;;;;;;;;20.10;99.90;;;;;;5030601;28;19928;-58
2022/11/07 11:22:54;;;;;;;;;;;20.20;99.90;;;;;;5028398;28;20336;-57
2022/11/07 11:25:22;;;;;;;;;;;20.30;99.90;;;;;;5033843;28;20479;-61
2022/11/07 11:28:04;;;;;;;;;;;20.30;99.90;;;;;;5010824;28;20396;-59
2022/11/07 11:30:35;;;;;;;;;;;20.40;99.90;;;;;;5029181;28;20296;-57
2022/11/07 11:33:21;;;;;;;;;;;20.40;99.90;;;;;;5032179;28;20367;-60
2022/11/07 11:35:52;;;;;;;;;;;20.50;99.90;;;;;;5026947;28;19932;-58
2022/11/07 11:38:25;;;;;;;;;;;20.50;99.90;;;;;;5028461;28;20573;-59
2022/11/07 11:40:57;;;;;;;;;;;20.60;99.90;;;;;;5032816;28;19971;-57
2022/11/07 11:44:00;;;;;;;;;;;20.60;99.90;;;;;;5031141;28;19940;-57
2022/11/07 11:46:48;;;;;;;;;;;20.70;99.90;;;;;;4947430;28;19930;-60
2022/11/07 11:49:20;;;;;;;;;;;20.60;99.90;;;;;;4988423;28;19925;-58
2022/11/07 11:51:57;;;;;;;;;;;20.60;99.90;;;;;;5031667;28;19925;-59
2022/11/07 11:54:24;;;;;;;;;;;20.60;99.90;;;;;;5036486;28;20348;-58
2022/11/07 11:56:57;;;;;;;;;;;20.60;99.90;;;;;;5040478;28;19931;-62
2022/11/07 11:59:33;;;;;;;;;;;20.60;99.90;;;;;;5032824;28;20344;-61
2022/11/07 12:02:10;;;;;;;;;;;20.60;99.90;;;;;;5018440;28;19932;-65
2022/11/07 12:04:37;;;;;;;;;;;20.60;99.90;;;;;;5030544;28;19924;-66
2022/11/07 12:07:11;;;;;;;;;;;20.60;99.90;;;;;;5045096;28;20027;-64
2022/11/07 12:09:54;;;;;;;;;;;20.60;99.90;;;;;;5022319;28;19929;-63
2022/11/07 12:12:28;;;;;;;;;;;20.50;99.90;;;;;;5026160;28;19925;-64
2022/11/07 12:15:01;;;;;;;;;;;20.60;99.90;;;;;;5044685;28;20153;-59
2022/11/07 12:17:37;;;;;;;;;;;20.50;99.90;;;;;;5050565;28;19929;-61
2022/11/07 12:20:11;;;;;;;;;;;20.60;99.90;;;;;;5044196;28;19921;-61
2022/11/07 12:22:49;;;;;;;;;;;20.50;99.90;;;;;;5039435;28;19921;-60
2022/11/07 12:25:19;;;;;;;;;;;20.50;99.90;;;;;;5038551;28;19932;-60
2022/11/07 12:27:56;;;;;;;;;;;20.40;99.90;;;;;;5044449;28;19935;-60
2022/11/07 12:30:29;;;;;;;;;;;20.40;99.90;;;;;;5037588;28;20039;-58
2022/11/07 12:33:05;;;;;;;;;;;20.30;99.90;;;;;;5032308;28;19940;-58
2022/11/07 12:36:05;;;;;;;;;;;20.20;99.90;;;;;;5034944;28;19932;-60
2022/11/07 12:38:38;;;;;;;;;;;20.30;99.90;;;;;;4976002;28;19925;-59
2022/11/07 12:41:11;;;;;;;;;;;20.30;99.90;;;;;;5018549;28;19921;-59
2022/11/07 12:43:38;;;;;;;;;;;20.30;99.90;;;;;;5031455;28;19944;-61
2022/11/07 12:46:08;;;;;;;;;;;20.30;99.90;;;;;;5034134;28;19920;-59
2022/11/07 12:48:49;;;;;;;;;;;20.30;99.90;;;;;;5027011;28;20283;-59
2022/11/07 12:51:28;;;;;;;;;;;20.30;99.90;;;;;;5029447;28;19925;-61
2022/11/07 12:54:04;;;;;;;;;;;20.30;99.90;;;;;;5030424;28;19932;-59
2022/11/07 12:56:34;;;;;;;;;;;20.30;99.90;;;;;;5028970;28;19932;-56
2022/11/07 12:59:03;;;;;;;;;;;20.20;99.90;;;;;;5035445;28;19925;-65
2022/11/07 13:01:36;;;;;;;;;;;20.20;99.90;;;;;;5033445;28;20393;-62
2022/11/07 13:04:12;;;;;;;;;;;20.10;99.90;;;;;;5042628;28;19928;-58
2022/11/07 13:06:48;;;;;;;;;;;20.10;99.90;;;;;;5037888;28;19924;-62
2022/11/07 13:09:15;;;;;;;;;;;20.00;99.90;;;;;;5036064;28;19929;-60
2022/11/07 13:12:01;;;;;;;;;;;19.90;99.90;;;;;;5035917;28;19925;-59
2022/11/07 13:14:32;;;;;;;;;;;19.90;99.90;;;;;;5036658;28;20015;-60
2022/11/07 13:17:16;;;;;;;;;;;19.90;99.90;;;;;;5033404;28;19921;-58
2022/11/07 13:19:44;;;;;;;;;;;19.90;99.90;;;;;;5035205;28;19928;-61
2022/11/07 13:22:14;;;;;;;;;;;20.00;99.90;;;;;;5039339;28;20308;-61
2022/11/07 13:24:53;;;;;;;;;;;20.10;99.90;;;;;;5032803;28;19936;-61
2022/11/07 13:27:22;;;;;;;;;;;20.20;99.90;;;;;;5034429;28;20393;-58
2022/11/07 13:29:50;;;;;;;;;;;20.30;99.90;;;;;;5034489;28;19924;-61
2022/11/07 13:32:17;;;;;;;;;;;20.40;99.90;;;;;;5040822;28;19925;-60
2022/11/07 13:34:54;;;;;;;;;;;20.50;99.90;;;;;;5033574;28;19928;-62
2022/11/07 13:37:26;;;;;;;;;;;20.60;99.90;;;;;;5043375;28;19931;-61
2022/11/07 13:39:57;;;;;;;;;;;20.70;99.90;;;;;;5034868;28;19932;-63
2022/11/07 13:42:27;;;;;;;;;;;20.80;99.90;;;;;;5034765;28;19925;-59
2022/11/07 13:44:55;;;;;;;;;;;20.80;99.90;;;;;;5030395;28;19932;-58
2022/11/07 13:47:25;;;;;;;;;;;20.80;99.90;;;;;;5030078;28;20309;-58
2022/11/07 13:49:55;;;;;;;;;;;20.80;99.90;;;;;;5038708;28;19940;-64
2022/11/07 13:52:28;;;;;;;;;;;20.80;99.90;;;;;;5043801;28;19920;-60
2022/11/07 13:55:07;;;;;;;;;;;20.80;99.90;;;;;;5041493;28;19921;-62
2022/11/07 13:57:40;;;;;;;;;;;20.80;99.90;;;;;;5027474;28;19927;-62
2022/11/07 14:00:14;;;;;;;;;;;20.80;99.90;;;;;;5047507;28;19924;-62
2022/11/07 14:02:49;;;;;;;;;;;20.80;99.90;;;;;;5015577;28;19932;-60
2022/11/07 14:05:16;;;;;;;;;;;20.80;99.90;;;;;;5043294;28;19936;-61
2022/11/07 14:07:53;;;;;;;;;;;20.70;99.90;;;;;;5039609;28;19928;-58
2022/11/07 14:10:26;;;;;;;;;;;20.70;99.90;;;;;;5039471;28;20324;-62
2022/11/07 14:13:11;;;;;;;;;;;20.70;99.90;;;;;;5048069;28;19936;-62
2022/11/07 14:15:43;;;;;;;;;;;20.60;99.90;;;;;;5040711;28;19921;-61
2022/11/07 14:18:12;;;;;;;;;;;20.60;99.90;;;;;;5034676;28;19908;-63
2022/11/07 14:20:52;;;;;;;;;;;20.50;99.90;;;;;;5064464;28;19935;-62
2022/11/07 14:23:21;;;;;;;;;;;20.50;99.90;;;;;;5052489;28;19916;-60
2022/11/07 14:25:55;;;;;;;;;;;20.50;99.90;;;;;;5039223;28;19909;-65
2022/11/07 14:28:22;;;;;;;;;;;20.40;99.90;;;;;;5024109;28;19932;-62
2022/11/07 14:30:51;;;;;;;;;;;20.40;99.90;;;;;;5021263;28;19932;-59
2022/11/07 14:33:19;;;;;;;;;;;20.30;99.90;;;;;;5016545;28;20000;-63
2022/11/07 14:35:48;;;;;;;;;;;20.20;99.90;;;;;;5032219;28;19940;-63
2022/11/07 14:38:21;;;;;;;;;;;20.20;99.90;;;;;;5034560;28;19932;-63
2022/11/07 14:40:49;;;;;;;;;;;20.20;99.90;;;;;;5040658;28;19940;-62
2022/11/07 14:43:17;;;;;;;;;;;20.20;99.90;;;;;;5034997;28;19936;-63